sensor_id;sensor_type;location;lat;lon;timestamp;P1;durP1;ratioP1;P2;durP2;ratioP2
51326;SDS011;37412;52.836;6.362;2023-05-07T01:45:44;12.50;;;10.23;;
51326;SDS011;37412;52.836;6.362;2023-05-07T01:48:31;14.75;;;11.27;;
51326;SDS011;37412;52.836;6.362;2023-05-07T01:51:18;13.40;;;12.00;;
51326;SDS011;37412;52.836;6.362;2023-05-07T01:54:05;16.55;;;12.55;;
51326;SDS011;37412;52.836;6.362;2023-05-07T01:56:51;16.25;;;12.55;;
51326;SDS011;37412;52.836;6.362;2023-05-07T01:59:37;15.75;;;12.20;;
51326;SDS011;37412;52.836;6.362;2023-05-07T02:02:23;19.63;;;12.63;;
51326;SDS011;37412;52.836;6.362;2023-05-07T02:05:09;15.63;;;12.35;;
51326;SDS011;37412;52.836;6.362;2023-05-07T02:07:55;16.45;;;13.77;;
51326;SDS011;37412;52.836;6.362;2023-05-07T02:10:41;16.17;;;13.27;;
51326;SDS011;37412;52.836;6.362;2023-05-07T02:13:31;19.33;;;14.48;;
51326;SDS011;37412;52.836;6.362;2023-05-07T02:16:18;17.92;;;13.90;;
51326;SDS011;37412;52.836;6.362;2023-05-07T02:19:05;18.10;;;13.82;;
51326;SDS011;37412;52.836;6.362;2023-05-07T02:21:51;21.00;;;14.38;;
51326;SDS011;37412;52.836;6.362;2023-05-07T07:34:49;28.25;;;20.75;;
51326;SDS011;37412;52.836;6.362;2023-05-07T07:37:35;30.08;;;22.25;;
51326;SDS011;37412;52.836;6.362;2023-05-07T07:40:22;28.27;;;21.05;;
51326;SDS011;37412;52.836;6.362;2023-05-07T07:43:08;27.67;;;21.88;;
51326;SDS011;37412;52.836;6.362;2023-05-07T07:45:54;32.22;;;22.67;;
51326;SDS011;37412;52.836;6.362;2023-05-07T07:48:40;28.13;;;21.65;;
51326;SDS011;37412;52.836;6.362;2023-05-07T07:51:26;30.05;;;22.48;;
51326;SDS011;37412;52.836;6.362;2023-05-07T10:43:53;23.75;;;19.90;;
51326;SDS011;37412;52.836;6.362;2023-05-07T10:46:42;21.58;;;18.45;;
51326;SDS011;37412;52.836;6.362;2023-05-07T10:49:29;23.58;;;19.35;;
51326;SDS011;37412;52.836;6.362;2023-05-07T10:52:19;26.25;;;19.65;;
51326;SDS011;37412;52.836;6.362;2023-05-07T10:58:22;22.00;;;18.67;;
51326;SDS011;37412;52.836;6.362;2023-05-07T11:01:14;25.10;;;19.58;;
51326;SDS011;37412;52.836;6.362;2023-05-07T11:04:21;22.27;;;18.77;;
51326;SDS011;37412;52.836;6.362;2023-05-07T11:07:21;24.20;;;20.27;;
51326;SDS011;37412;52.836;6.362;2023-05-07T11:10:10;22.83;;;19.30;;
51326;SDS011;37412;52.836;6.362;2023-05-07T11:12:57;23.50;;;18.85;;
51326;SDS011;37412;52.836;6.362;2023-05-07T11:15:46;23.73;;;19.25;;
51326;SDS011;37412;52.836;6.362;2023-05-07T11:18:51;21.38;;;18.42;;
51326;SDS011;37412;52.836;6.362;2023-05-07T11:21:40;21.38;;;17.05;;
51326;SDS011;37412;52.836;6.362;2023-05-07T11:24:27;22.10;;;17.50;;
51326;SDS011;37412;52.836;6.362;2023-05-07T11:27:14;18.88;;;16.52;;
51326;SDS011;37412;52.836;6.362;2023-05-07T11:30:09;24.80;;;18.73;;
51326;SDS011;37412;52.836;6.362;2023-05-07T11:32:55;22.08;;;18.40;;
51326;SDS011;37412;52.836;6.362;2023-05-07T11:35:41;22.08;;;18.17;;
51326;SDS011;37412;52.836;6.362;2023-05-07T11:38:28;20.30;;;15.90;;
51326;SDS011;37412;52.836;6.362;2023-05-07T11:41:21;20.00;;;17.45;;
51326;SDS011;37412;52.836;6.362;2023-05-07T11:44:08;21.42;;;17.80;;
51326;SDS011;37412;52.836;6.362;2023-05-07T11:46:54;18.08;;;15.73;;
51326;SDS011;37412;52.836;6.362;2023-05-07T11:49:41;16.13;;;14.05;;
51326;SDS011;37412;52.836;6.362;2023-05-07T11:52:27;18.60;;;15.88;;
51326;SDS011;37412;52.836;6.362;2023-05-07T11:55:14;17.83;;;15.90;;
51326;SDS011;37412;52.836;6.362;2023-05-07T11:58:03;16.52;;;14.43;;
51326;SDS011;37412;52.836;6.362;2023-05-07T12:00:50;19.20;;;16.58;;
51326;SDS011;37412;52.836;6.362;2023-05-07T12:03:39;17.58;;;15.45;;
51326;SDS011;37412;52.836;6.362;2023-05-07T12:06:35;21.17;;;15.70;;
51326;SDS011;37412;52.836;6.362;2023-05-07T12:09:22;19.90;;;16.42;;
51326;SDS011;37412;52.836;6.362;2023-05-07T12:12:18;17.45;;;15.55;;
51326;SDS011;37412;52.836;6.362;2023-05-07T12:15:04;18.33;;;15.98;;
51326;SDS011;37412;52.836;6.362;2023-05-07T12:17:50;16.60;;;14.80;;
51326;SDS011;37412;52.836;6.362;2023-05-07T12:20:38;16.52;;;14.05;;
51326;SDS011;37412;52.836;6.362;2023-05-07T12:23:24;16.80;;;14.52;;
51326;SDS011;37412;52.836;6.362;2023-05-07T12:26:10;15.30;;;12.77;;
51326;SDS011;37412;52.836;6.362;2023-05-07T12:28:57;15.48;;;13.13;;
51326;SDS011;37412;52.836;6.362;2023-05-07T12:31:43;16.30;;;13.90;;
51326;SDS011;37412;52.836;6.362;2023-05-07T12:34:29;16.17;;;12.80;;
51326;SDS011;37412;52.836;6.362;2023-05-07T12:37:16;17.45;;;14.63;;
51326;SDS011;37412;52.836;6.362;2023-05-07T12:40:09;16.77;;;14.45;;
51326;SDS011;37412;52.836;6.362;2023-05-07T12:42:56;15.98;;;14.13;;
51326;SDS011;37412;52.836;6.362;2023-05-07T12:45:46;16.33;;;13.27;;
51326;SDS011;37412;52.836;6.362;2023-05-07T12:48:35;16.85;;;13.23;;
51326;SDS011;37412;52.836;6.362;2023-05-07T12:51:22;16.88;;;13.52;;
51326;SDS011;37412;52.836;6.362;2023-05-07T12:54:08;18.15;;;13.85;;
51326;SDS011;37412;52.836;6.362;2023-05-07T12:57:01;13.65;;;11.65;;
51326;SDS011;37412;52.836;6.362;2023-05-07T12:59:51;14.48;;;12.57;;
51326;SDS011;37412;52.836;6.362;2023-05-07T13:02:43;14.05;;;12.25;;
51326;SDS011;37412;52.836;6.362;2023-05-07T13:05:31;13.48;;;11.88;;
51326;SDS011;37412;52.836;6.362;2023-05-07T13:08:25;14.85;;;12.32;;
51326;SDS011;37412;52.836;6.362;2023-05-07T13:11:12;13.82;;;11.90;;
51326;SDS011;37412;52.836;6.362;2023-05-07T13:13:58;13.82;;;11.60;;
51326;SDS011;37412;52.836;6.362;2023-05-07T13:16:45;15.63;;;13.18;;
51326;SDS011;37412;52.836;6.362;2023-05-07T13:19:34;15.38;;;13.60;;
51326;SDS011;37412;52.836;6.362;2023-05-07T13:22:22;14.85;;;13.15;;
51326;SDS011;37412;52.836;6.362;2023-05-07T13:25:08;14.18;;;12.65;;
51326;SDS011;37412;52.836;6.362;2023-05-07T13:27:54;16.38;;;14.43;;
51326;SDS011;37412;52.836;6.362;2023-05-07T13:30:41;15.25;;;13.23;;
51326;SDS011;37412;52.836;6.362;2023-05-07T13:33:28;16.75;;;13.70;;
51326;SDS011;37412;52.836;6.362;2023-05-07T13:36:14;16.60;;;13.55;;
51326;SDS011;37412;52.836;6.362;2023-05-07T13:39:00;16.48;;;13.05;;
51326;SDS011;37412;52.836;6.362;2023-05-07T13:41:46;19.08;;;14.63;;
51326;SDS011;37412;52.836;6.362;2023-05-07T13:44:35;16.00;;;12.80;;
51326;SDS011;37412;52.836;6.362;2023-05-07T13:47:21;14.77;;;13.10;;
51326;SDS011;37412;52.836;6.362;2023-05-07T13:50:08;15.55;;;13.52;;
51326;SDS011;37412;52.836;6.362;2023-05-07T13:52:56;16.13;;;14.20;;
51326;SDS011;37412;52.836;6.362;2023-05-07T13:55:42;16.70;;;14.52;;
51326;SDS011;37412;52.836;6.362;2023-05-07T13:58:29;18.70;;;14.75;;
51326;SDS011;37412;52.836;6.362;2023-05-07T14:01:15;17.17;;;15.23;;
51326;SDS011;37412;52.836;6.362;2023-05-07T14:04:01;16.83;;;13.95;;
51326;SDS011;37412;52.836;6.362;2023-05-07T14:06:47;18.23;;;14.40;;
51326;SDS011;37412;52.836;6.362;2023-05-07T14:09:33;15.23;;;13.63;;
51326;SDS011;37412;52.836;6.362;2023-05-07T14:12:19;16.45;;;13.57;;
51326;SDS011;37412;52.836;6.362;2023-05-07T14:15:05;16.38;;;14.20;;
51326;SDS011;37412;52.836;6.362;2023-05-07T14:17:51;16.33;;;14.48;;
51326;SDS011;37412;52.836;6.362;2023-05-07T14:20:37;16.33;;;14.65;;
51326;SDS011;37412;52.836;6.362;2023-05-07T14:23:23;15.80;;;13.77;;
51326;SDS011;37412;52.836;6.362;2023-05-07T14:26:11;15.65;;;13.65;;
51326;SDS011;37412;52.836;6.362;2023-05-07T14:28:57;16.60;;;14.60;;
51326;SDS011;37412;52.836;6.362;2023-05-07T14:31:43;16.45;;;13.27;;
51326;SDS011;37412;52.836;6.362;2023-05-07T14:34:30;16.67;;;14.88;;
51326;SDS011;37412;52.836;6.362;2023-05-07T14:37:17;15.63;;;13.93;;
51326;SDS011;37412;52.836;6.362;2023-05-07T17:43:22;13.63;;;12.10;;
51326;SDS011;37412;52.836;6.362;2023-05-07T17:46:08;13.88;;;12.45;;
51326;SDS011;37412;52.836;6.362;2023-05-07T17:48:54;13.35;;;12.02;;
51326;SDS011;37412;52.836;6.362;2023-05-07T17:51:42;13.05;;;11.68;;
51326;SDS011;37412;52.836;6.362;2023-05-07T17:54:31;13.75;;;12.32;;
51326;SDS011;37412;52.836;6.362;2023-05-07T17:57:17;13.88;;;12.57;;
51326;SDS011;37412;52.836;6.362;2023-05-07T18:00:03;13.32;;;12.02;;
51326;SDS011;37412;52.836;6.362;2023-05-07T18:02:52;14.40;;;13.00;;
51326;SDS011;37412;52.836;6.362;2023-05-07T18:05:37;14.10;;;12.70;;
51326;SDS011;37412;52.836;6.362;2023-05-07T18:08:23;14.25;;;12.85;;
51326;SDS011;37412;52.836;6.362;2023-05-07T18:11:10;13.13;;;11.88;;
51326;SDS011;37412;52.836;6.362;2023-05-07T18:13:56;13.30;;;11.98;;
51326;SDS011;37412;52.836;6.362;2023-05-07T18:16:42;12.13;;;10.88;;
51326;SDS011;37412;52.836;6.362;2023-05-07T18:19:28;12.02;;;10.82;;
51326;SDS011;37412;52.836;6.362;2023-05-07T18:22:14;11.55;;;10.45;;
51326;SDS011;37412;52.836;6.362;2023-05-07T18:25:00;12.18;;;10.98;;
51326;SDS011;37412;52.836;6.362;2023-05-07T18:27:46;12.50;;;11.30;;
51326;SDS011;37412;52.836;6.362;2023-05-07T18:30:31;12.60;;;11.38;;
51326;SDS011;37412;52.836;6.362;2023-05-07T18:33:17;12.38;;;11.18;;
51326;SDS011;37412;52.836;6.362;2023-05-07T18:36:03;13.15;;;11.57;;
51326;SDS011;37412;52.836;6.362;2023-05-07T18:38:50;12.88;;;11.18;;
51326;SDS011;37412;52.836;6.362;2023-05-07T18:41:36;11.82;;;10.73;;
51326;SDS011;37412;52.836;6.362;2023-05-07T18:44:23;12.77;;;11.48;;
51326;SDS011;37412;52.836;6.362;2023-05-07T18:47:09;11.95;;;10.85;;
51326;SDS011;37412;52.836;6.362;2023-05-07T18:49:55;12.30;;;10.90;;
51326;SDS011;37412;52.836;6.362;2023-05-07T18:52:41;11.90;;;10.80;;
51326;SDS011;37412;52.836;6.362;2023-05-07T18:55:27;12.32;;;11.23;;
51326;SDS011;37412;52.836;6.362;2023-05-07T18:58:13;12.65;;;11.45;;
51326;SDS011;37412;52.836;6.362;2023-05-07T19:01:00;12.80;;;11.55;;
51326;SDS011;37412;52.836;6.362;2023-05-07T19:03:52;12.52;;;11.32;;
51326;SDS011;37412;52.836;6.362;2023-05-07T19:06:38;13.30;;;12.00;;
51326;SDS011;37412;52.836;6.362;2023-05-07T19:09:24;13.30;;;12.00;;
51326;SDS011;37412;52.836;6.362;2023-05-07T19:12:11;13.70;;;12.40;;
51326;SDS011;37412;52.836;6.362;2023-05-07T19:14:57;13.93;;;12.52;;
51326;SDS011;37412;52.836;6.362;2023-05-07T19:17:43;13.82;;;12.52;;
51326;SDS011;37412;52.836;6.362;2023-05-07T19:20:29;13.93;;;12.52;;
51326;SDS011;37412;52.836;6.362;2023-05-07T19:23:15;13.43;;;12.18;;
51326;SDS011;37412;52.836;6.362;2023-05-07T19:26:01;14.15;;;12.75;;
51326;SDS011;37412;52.836;6.362;2023-05-07T19:28:47;14.13;;;12.73;;
51326;SDS011;37412;52.836;6.362;2023-05-07T19:31:34;14.40;;;13.00;;
51326;SDS011;37412;52.836;6.362;2023-05-07T19:34:20;14.67;;;13.20;;
51326;SDS011;37412;52.836;6.362;2023-05-07T19:37:06;14.25;;;12.93;;
51326;SDS011;37412;52.836;6.362;2023-05-07T19:40:04;14.20;;;12.77;;
51326;SDS011;37412;52.836;6.362;2023-05-07T19:42:53;14.43;;;13.10;;
51326;SDS011;37412;52.836;6.362;2023-05-07T19:45:47;14.75;;;13.35;;
51326;SDS011;37412;52.836;6.362;2023-05-07T19:48:34;14.80;;;13.38;;
51326;SDS011;37412;52.836;6.362;2023-05-07T19:51:24;14.10;;;12.73;;
51326;SDS011;37412;52.836;6.362;2023-05-07T19:54:10;14.40;;;13.00;;
51326;SDS011;37412;52.836;6.362;2023-05-07T19:56:56;14.73;;;13.30;;
51326;SDS011;37412;52.836;6.362;2023-05-07T19:59:43;14.68;;;13.27;;
51326;SDS011;37412;52.836;6.362;2023-05-07T20:02:30;14.60;;;13.20;;
51326;SDS011;37412;52.836;6.362;2023-05-07T20:05:16;14.23;;;12.82;;
51326;SDS011;37412;52.836;6.362;2023-05-07T20:08:02;14.05;;;12.65;;
51326;SDS011;37412;52.836;6.362;2023-05-07T20:10:49;14.85;;;13.38;;
51326;SDS011;37412;52.836;6.362;2023-05-07T20:13:35;14.93;;;13.52;;
51326;SDS011;37412;52.836;6.362;2023-05-07T20:16:22;15.50;;;14.00;;
51326;SDS011;37412;52.836;6.362;2023-05-07T20:19:08;15.90;;;14.30;;
51326;SDS011;37412;52.836;6.362;2023-05-07T20:21:54;15.75;;;14.25;;
51326;SDS011;37412;52.836;6.362;2023-05-07T20:24:49;15.02;;;13.63;;
51326;SDS011;37412;52.836;6.362;2023-05-07T20:27:37;15.40;;;14.00;;
51326;SDS011;37412;52.836;6.362;2023-05-07T20:30:27;14.98;;;13.60;;
51326;SDS011;37412;52.836;6.362;2023-05-07T20:33:15;15.18;;;13.68;;
51326;SDS011;37412;52.836;6.362;2023-05-07T20:36:06;15.00;;;13.50;;
51326;SDS011;37412;52.836;6.362;2023-05-07T20:38:52;15.35;;;13.85;;
51326;SDS011;37412;52.836;6.362;2023-05-07T20:41:41;14.70;;;13.30;;
51326;SDS011;37412;52.836;6.362;2023-05-07T20:44:34;14.48;;;13.07;;
51326;SDS011;37412;52.836;6.362;2023-05-07T20:47:20;14.30;;;12.95;;
51326;SDS011;37412;52.836;6.362;2023-05-07T20:50:06;13.90;;;12.60;;
51326;SDS011;37412;52.836;6.362;2023-05-07T20:52:53;13.83;;;12.47;;
51326;SDS011;37412;52.836;6.362;2023-05-07T20:55:38;13.40;;;12.10;;
51326;SDS011;37412;52.836;6.362;2023-05-07T20:58:26;13.80;;;12.40;;
51326;SDS011;37412;52.836;6.362;2023-05-07T21:01:15;12.93;;;11.73;;
51326;SDS011;37412;52.836;6.362;2023-05-07T21:04:01;13.43;;;12.20;;
51326;SDS011;37412;52.836;6.362;2023-05-07T21:06:47;12.52;;;11.35;;
51326;SDS011;37412;52.836;6.362;2023-05-07T21:09:33;12.60;;;11.40;;
51326;SDS011;37412;52.836;6.362;2023-05-07T21:12:23;12.50;;;11.40;;
51326;SDS011;37412;52.836;6.362;2023-05-07T21:15:15;12.38;;;11.18;;
51326;SDS011;37412;52.836;6.362;2023-05-07T21:18:01;12.00;;;10.80;;
51326;SDS011;37412;52.836;6.362;2023-05-07T21:20:47;12.68;;;11.38;;
51326;SDS011;37412;52.836;6.362;2023-05-07T21:23:32;12.30;;;11.20;;
51326;SDS011;37412;52.836;6.362;2023-05-07T21:26:21;12.40;;;11.25;;
51326;SDS011;37412;52.836;6.362;2023-05-07T21:29:08;12.90;;;11.65;;
51326;SDS011;37412;52.836;6.362;2023-05-07T21:31:54;13.30;;;12.02;;
51326;SDS011;37412;52.836;6.362;2023-05-07T21:34:40;13.07;;;11.88;;
51326;SDS011;37412;52.836;6.362;2023-05-07T21:37:26;13.27;;;11.98;;
51326;SDS011;37412;52.836;6.362;2023-05-07T21:40:13;13.70;;;12.30;;
51326;SDS011;37412;52.836;6.362;2023-05-07T21:42:59;12.80;;;11.57;;
51326;SDS011;37412;52.836;6.362;2023-05-07T21:45:45;13.35;;;12.05;;
51326;SDS011;37412;52.836;6.362;2023-05-07T21:48:31;13.70;;;12.40;;
51326;SDS011;37412;52.836;6.362;2023-05-07T21:51:17;14.00;;;12.70;;
51326;SDS011;37412;52.836;6.362;2023-05-07T21:54:03;12.90;;;11.70;;
51326;SDS011;37412;52.836;6.362;2023-05-07T21:56:49;13.32;;;12.13;;
51326;SDS011;37412;52.836;6.362;2023-05-07T21:59:35;13.70;;;12.20;;
51326;SDS011;37412;52.836;6.362;2023-05-07T22:02:21;12.85;;;11.65;;
51326;SDS011;37412;52.836;6.362;2023-05-07T22:05:07;11.68;;;10.57;;
51326;SDS011;37412;52.836;6.362;2023-05-07T22:07:53;14.82;;;13.40;;
51326;SDS011;37412;52.836;6.362;2023-05-07T22:10:39;14.32;;;12.82;;
51326;SDS011;37412;52.836;6.362;2023-05-07T22:13:25;13.73;;;12.43;;
51326;SDS011;37412;52.836;6.362;2023-05-07T22:16:11;13.10;;;11.80;;
51326;SDS011;37412;52.836;6.362;2023-05-07T22:18:57;13.80;;;12.45;;
51326;SDS011;37412;52.836;6.362;2023-05-07T22:21:44;13.57;;;12.27;;
51326;SDS011;37412;52.836;6.362;2023-05-07T22:24:30;13.48;;;12.20;;
51326;SDS011;37412;52.836;6.362;2023-05-07T22:27:15;13.13;;;11.83;;
51326;SDS011;37412;52.836;6.362;2023-05-07T22:30:01;12.98;;;11.73;;
51326;SDS011;37412;52.836;6.362;2023-05-07T22:32:48;13.50;;;12.20;;
51326;SDS011;37412;52.836;6.362;2023-05-07T22:35:34;13.60;;;12.20;;
51326;SDS011;37412;52.836;6.362;2023-05-07T22:38:20;13.40;;;12.10;;
51326;SDS011;37412;52.836;6.362;2023-05-07T22:41:05;13.23;;;11.93;;
51326;SDS011;37412;52.836;6.362;2023-05-07T22:43:51;13.35;;;11.95;;
51326;SDS011;37412;52.836;6.362;2023-05-07T22:46:37;13.35;;;12.05;;
51326;SDS011;37412;52.836;6.362;2023-05-07T22:49:23;13.70;;;12.30;;
51326;SDS011;37412;52.836;6.362;2023-05-07T22:52:11;13.50;;;12.20;;
51326;SDS011;37412;52.836;6.362;2023-05-07T22:54:57;13.75;;;12.32;;
51326;SDS011;37412;52.836;6.362;2023-05-07T22:57:42;14.00;;;12.70;;
51326;SDS011;37412;52.836;6.362;2023-05-07T23:00:28;14.02;;;12.63;;
51326;SDS011;37412;52.836;6.362;2023-05-07T23:03:14;13.03;;;11.83;;
51326;SDS011;37412;52.836;6.362;2023-05-07T23:06:00;14.30;;;12.90;;
51326;SDS011;37412;52.836;6.362;2023-05-07T23:08:46;13.90;;;12.55;;
51326;SDS011;37412;52.836;6.362;2023-05-07T23:11:33;14.63;;;13.13;;
51326;SDS011;37412;52.836;6.362;2023-05-07T23:14:19;14.80;;;13.30;;
51326;SDS011;37412;52.836;6.362;2023-05-07T23:17:05;14.32;;;12.88;;
51326;SDS011;37412;52.836;6.362;2023-05-07T23:19:51;15.00;;;13.40;;
51326;SDS011;37412;52.836;6.362;2023-05-07T23:22:39;14.45;;;13.05;;
51326;SDS011;37412;52.836;6.362;2023-05-07T23:25:26;14.80;;;13.40;;
51326;SDS011;37412;52.836;6.362;2023-05-07T23:28:13;14.27;;;12.88;;
51326;SDS011;37412;52.836;6.362;2023-05-07T23:30:59;15.20;;;13.70;;
51326;SDS011;37412;52.836;6.362;2023-05-07T23:33:45;15.17;;;13.67;;
51326;SDS011;37412;52.836;6.362;2023-05-07T23:36:31;15.10;;;13.60;;
51326;SDS011;37412;52.836;6.362;2023-05-07T23:39:17;14.82;;;13.32;;
51326;SDS011;37412;52.836;6.362;2023-05-07T23:42:04;15.55;;;13.75;;
51326;SDS011;37412;52.836;6.362;2023-05-07T23:44:50;14.55;;;13.15;;
51326;SDS011;37412;52.836;6.362;2023-05-07T23:47:36;14.88;;;13.48;;
51326;SDS011;37412;52.836;6.362;2023-05-07T23:50:22;15.25;;;13.75;;
51326;SDS011;37412;52.836;6.362;2023-05-07T23:53:08;15.13;;;13.63;;
51326;SDS011;37412;52.836;6.362;2023-05-07T23:55:54;14.95;;;13.45;;
51326;SDS011;37412;52.836;6.362;2023-05-07T23:58:40;14.20;;;12.82;;
